sensor_id;sensor_type;location;lat;lon;timestamp;P1;durP1;ratioP1;P2;durP2;ratioP2
75941;SDS011;64622;46.220;19.878;2023-08-06T00:01:52;14.95;;;7.47;;
75941;SDS011;64622;46.220;19.878;2023-08-06T00:04:19;15.50;;;6.87;;
75941;SDS011;64622;46.220;19.878;2023-08-06T00:06:46;15.48;;;7.40;;
75941;SDS011;64622;46.220;19.878;2023-08-06T00:09:12;17.37;;;8.23;;
75941;SDS011;64622;46.220;19.878;2023-08-06T00:11:40;15.47;;;7.73;;
75941;SDS011;64622;46.220;19.878;2023-08-06T00:14:07;14.02;;;7.30;;
75941;SDS011;64622;46.220;19.878;2023-08-06T00:16:34;15.10;;;7.15;;
75941;SDS011;64622;46.220;19.878;2023-08-06T00:19:00;15.02;;;7.40;;
75941;SDS011;64622;46.220;19.878;2023-08-06T00:21:28;16.55;;;7.47;;
75941;SDS011;64622;46.220;19.878;2023-08-06T00:23:54;16.10;;;7.70;;
75941;SDS011;64622;46.220;19.878;2023-08-06T00:26:21;16.15;;;8.02;;
75941;SDS011;64622;46.220;19.878;2023-08-06T00:28:47;15.68;;;7.47;;
75941;SDS011;64622;46.220;19.878;2023-08-06T00:31:14;16.90;;;7.55;;
75941;SDS011;64622;46.220;19.878;2023-08-06T00:33:41;13.10;;;6.28;;
75941;SDS011;64622;46.220;19.878;2023-08-06T00:36:07;11.37;;;5.80;;
75941;SDS011;64622;46.220;19.878;2023-08-06T00:38:34;13.02;;;5.57;;
75941;SDS011;64622;46.220;19.878;2023-08-06T00:41:01;10.75;;;4.78;;
75941;SDS011;64622;46.220;19.878;2023-08-06T00:43:27;11.27;;;4.80;;
75941;SDS011;64622;46.220;19.878;2023-08-06T00:45:54;13.70;;;5.65;;
75941;SDS011;64622;46.220;19.878;2023-08-06T00:48:22;11.60;;;5.50;;
75941;SDS011;64622;46.220;19.878;2023-08-06T00:50:49;11.32;;;5.05;;
75941;SDS011;64622;46.220;19.878;2023-08-06T00:53:15;11.25;;;5.05;;
75941;SDS011;64622;46.220;19.878;2023-08-06T00:55:43;12.20;;;5.35;;
75941;SDS011;64622;46.220;19.878;2023-08-06T00:58:11;15.63;;;5.40;;
75941;SDS011;64622;46.220;19.878;2023-08-06T01:00:39;10.87;;;5.10;;
75941;SDS011;64622;46.220;19.878;2023-08-06T01:03:06;11.43;;;5.28;;
75941;SDS011;64622;46.220;19.878;2023-08-06T01:05:33;10.63;;;4.70;;
75941;SDS011;64622;46.220;19.878;2023-08-06T01:08:25;11.02;;;5.25;;
75941;SDS011;64622;46.220;19.878;2023-08-06T01:16:16;11.18;;;4.80;;
75941;SDS011;64622;46.220;19.878;2023-08-06T01:18:44;10.15;;;4.28;;
75941;SDS011;64622;46.220;19.878;2023-08-06T01:21:12;10.15;;;4.43;;
75941;SDS011;64622;46.220;19.878;2023-08-06T01:23:42;12.48;;;5.15;;
75941;SDS011;64622;46.220;19.878;2023-08-06T01:31:48;11.27;;;5.20;;
75941;SDS011;64622;46.220;19.878;2023-08-06T01:34:19;13.18;;;5.20;;
75941;SDS011;64622;46.220;19.878;2023-08-06T01:36:48;10.32;;;4.97;;
75941;SDS011;64622;46.220;19.878;2023-08-06T01:39:16;11.03;;;5.20;;
75941;SDS011;64622;46.220;19.878;2023-08-06T01:41:43;12.73;;;5.10;;
75941;SDS011;64622;46.220;19.878;2023-08-06T01:44:10;10.05;;;5.20;;
75941;SDS011;64622;46.220;19.878;2023-08-06T01:46:36;10.90;;;5.18;;
75941;SDS011;64622;46.220;19.878;2023-08-06T01:49:03;11.25;;;5.53;;
75941;SDS011;64622;46.220;19.878;2023-08-06T01:51:29;10.87;;;5.27;;
75941;SDS011;64622;46.220;19.878;2023-08-06T01:53:56;11.10;;;5.00;;
75941;SDS011;64622;46.220;19.878;2023-08-06T01:56:22;11.43;;;5.47;;
75941;SDS011;64622;46.220;19.878;2023-08-06T01:58:49;10.85;;;5.62;;
75941;SDS011;64622;46.220;19.878;2023-08-06T02:01:16;9.95;;;5.20;;
75941;SDS011;64622;46.220;19.878;2023-08-06T02:03:42;10.27;;;5.97;;
75941;SDS011;64622;46.220;19.878;2023-08-06T02:06:10;10.40;;;5.82;;
75941;SDS011;64622;46.220;19.878;2023-08-06T02:08:36;12.95;;;5.95;;
75941;SDS011;64622;46.220;19.878;2023-08-06T02:11:03;11.82;;;6.00;;
75941;SDS011;64622;46.220;19.878;2023-08-06T02:13:30;12.10;;;6.12;;
75941;SDS011;64622;46.220;19.878;2023-08-06T02:15:56;11.57;;;6.33;;
75941;SDS011;64622;46.220;19.878;2023-08-06T02:18:24;12.65;;;6.90;;
75941;SDS011;64622;46.220;19.878;2023-08-06T02:20:57;12.37;;;6.43;;
75941;SDS011;64622;46.220;19.878;2023-08-06T02:23:25;14.45;;;7.15;;
75941;SDS011;64622;46.220;19.878;2023-08-06T02:25:59;14.80;;;8.18;;
75941;SDS011;64622;46.220;19.878;2023-08-06T02:28:30;14.30;;;8.53;;
75941;SDS011;64622;46.220;19.878;2023-08-06T02:30:57;18.42;;;10.25;;
75941;SDS011;64622;46.220;19.878;2023-08-06T02:33:24;16.83;;;9.77;;
75941;SDS011;64622;46.220;19.878;2023-08-06T02:35:51;16.10;;;9.57;;
75941;SDS011;64622;46.220;19.878;2023-08-06T02:38:17;17.85;;;10.43;;
75941;SDS011;64622;46.220;19.878;2023-08-06T02:40:44;20.10;;;11.53;;
75941;SDS011;64622;46.220;19.878;2023-08-06T02:43:12;19.40;;;11.23;;
75941;SDS011;64622;46.220;19.878;2023-08-06T02:45:39;18.85;;;10.90;;
75941;SDS011;64622;46.220;19.878;2023-08-06T02:48:05;19.92;;;11.38;;
75941;SDS011;64622;46.220;19.878;2023-08-06T02:50:40;21.35;;;11.32;;
75941;SDS011;64622;46.220;19.878;2023-08-06T02:53:07;24.57;;;12.17;;
75941;SDS011;64622;46.220;19.878;2023-08-06T02:55:35;20.80;;;12.50;;
75941;SDS011;64622;46.220;19.878;2023-08-06T02:58:04;19.98;;;11.95;;
75941;SDS011;64622;46.220;19.878;2023-08-06T03:00:32;18.40;;;10.70;;
75941;SDS011;64622;46.220;19.878;2023-08-06T03:02:59;20.95;;;11.60;;
75941;SDS011;64622;46.220;19.878;2023-08-06T03:05:26;23.30;;;12.77;;
75941;SDS011;64622;46.220;19.878;2023-08-06T03:07:52;21.58;;;11.73;;
75941;SDS011;64622;46.220;19.878;2023-08-06T03:10:19;18.00;;;10.73;;
75941;SDS011;64622;46.220;19.878;2023-08-06T03:12:46;18.77;;;11.65;;
75941;SDS011;64622;46.220;19.878;2023-08-06T03:15:13;17.75;;;10.65;;
75941;SDS011;64622;46.220;19.878;2023-08-06T03:17:40;17.80;;;10.43;;
75941;SDS011;64622;46.220;19.878;2023-08-06T03:20:08;16.02;;;9.52;;
75941;SDS011;64622;46.220;19.878;2023-08-06T03:22:35;18.00;;;9.25;;
75941;SDS011;64622;46.220;19.878;2023-08-06T03:25:02;14.15;;;8.63;;
75941;SDS011;64622;46.220;19.878;2023-08-06T03:27:29;14.25;;;7.53;;
75941;SDS011;64622;46.220;19.878;2023-08-06T03:29:56;11.50;;;6.30;;
75941;SDS011;64622;46.220;19.878;2023-08-06T03:32:22;12.93;;;6.85;;
75941;SDS011;64622;46.220;19.878;2023-08-06T03:34:50;14.70;;;7.30;;
75941;SDS011;64622;46.220;19.878;2023-08-06T03:37:16;14.52;;;7.30;;
75941;SDS011;64622;46.220;19.878;2023-08-06T03:39:43;13.35;;;6.80;;
75941;SDS011;64622;46.220;19.878;2023-08-06T03:42:10;13.87;;;6.60;;
75941;SDS011;64622;46.220;19.878;2023-08-06T03:44:36;13.40;;;7.07;;
75941;SDS011;64622;46.220;19.878;2023-08-06T03:47:03;15.93;;;7.40;;
75941;SDS011;64622;46.220;19.878;2023-08-06T03:49:30;12.48;;;6.87;;
75941;SDS011;64622;46.220;19.878;2023-08-06T03:51:56;14.73;;;6.95;;
75941;SDS011;64622;46.220;19.878;2023-08-06T03:54:23;14.40;;;7.23;;
75941;SDS011;64622;46.220;19.878;2023-08-06T03:56:50;13.95;;;6.80;;
75941;SDS011;64622;46.220;19.878;2023-08-06T03:59:16;13.55;;;7.30;;
75941;SDS011;64622;46.220;19.878;2023-08-06T04:01:44;13.15;;;7.25;;
75941;SDS011;64622;46.220;19.878;2023-08-06T04:04:11;14.00;;;7.37;;
75941;SDS011;64622;46.220;19.878;2023-08-06T04:06:37;15.40;;;7.60;;
75941;SDS011;64622;46.220;19.878;2023-08-06T04:09:04;15.38;;;7.70;;
75941;SDS011;64622;46.220;19.878;2023-08-06T04:11:31;13.77;;;7.43;;
75941;SDS011;64622;46.220;19.878;2023-08-06T04:13:57;15.35;;;8.15;;
75941;SDS011;64622;46.220;19.878;2023-08-06T04:16:24;15.80;;;8.30;;
75941;SDS011;64622;46.220;19.878;2023-08-06T04:18:55;14.87;;;7.83;;
75941;SDS011;64622;46.220;19.878;2023-08-06T04:21:21;14.85;;;8.23;;
75941;SDS011;64622;46.220;19.878;2023-08-06T04:23:47;15.93;;;8.43;;
75941;SDS011;64622;46.220;19.878;2023-08-06T04:26:15;19.05;;;9.75;;
75941;SDS011;64622;46.220;19.878;2023-08-06T04:28:41;16.95;;;9.00;;
75941;SDS011;64622;46.220;19.878;2023-08-06T04:31:09;18.07;;;9.90;;
75941;SDS011;64622;46.220;19.878;2023-08-06T04:33:35;21.02;;;10.38;;
75941;SDS011;64622;46.220;19.878;2023-08-06T04:36:02;20.88;;;11.45;;
75941;SDS011;64622;46.220;19.878;2023-08-06T04:38:29;24.65;;;11.75;;
75941;SDS011;64622;46.220;19.878;2023-08-06T04:40:55;26.10;;;12.60;;
75941;SDS011;64622;46.220;19.878;2023-08-06T04:43:22;25.97;;;13.10;;
75941;SDS011;64622;46.220;19.878;2023-08-06T04:45:49;26.80;;;12.50;;
75941;SDS011;64622;46.220;19.878;2023-08-06T04:48:18;27.67;;;13.38;;
75941;SDS011;64622;46.220;19.878;2023-08-06T04:50:44;27.90;;;12.88;;
75941;SDS011;64622;46.220;19.878;2023-08-06T04:53:11;30.55;;;14.43;;
75941;SDS011;64622;46.220;19.878;2023-08-06T04:55:38;27.77;;;15.33;;
75941;SDS011;64622;46.220;19.878;2023-08-06T04:58:05;32.17;;;15.68;;
75941;SDS011;64622;46.220;19.878;2023-08-06T05:00:31;37.35;;;18.70;;
75941;SDS011;64622;46.220;19.878;2023-08-06T05:03:01;39.90;;;19.42;;
75941;SDS011;64622;46.220;19.878;2023-08-06T05:05:28;35.58;;;17.80;;
75941;SDS011;64622;46.220;19.878;2023-08-06T05:07:56;38.63;;;20.87;;
75941;SDS011;64622;46.220;19.878;2023-08-06T05:10:27;37.15;;;20.58;;
75941;SDS011;64622;46.220;19.878;2023-08-06T05:12:53;35.50;;;20.27;;
75941;SDS011;64622;46.220;19.878;2023-08-06T05:15:20;31.95;;;19.33;;
75941;SDS011;64622;46.220;19.878;2023-08-06T05:17:47;35.78;;;20.25;;
75941;SDS011;64622;46.220;19.878;2023-08-06T05:20:13;36.53;;;20.47;;
75941;SDS011;64622;46.220;19.878;2023-08-06T05:22:40;34.20;;;18.73;;
75941;SDS011;64622;46.220;19.878;2023-08-06T05:25:07;34.80;;;19.98;;
75941;SDS011;64622;46.220;19.878;2023-08-06T05:27:33;39.33;;;20.10;;
75941;SDS011;64622;46.220;19.878;2023-08-06T05:30:00;37.60;;;20.12;;
75941;SDS011;64622;46.220;19.878;2023-08-06T05:32:26;32.30;;;18.33;;
75941;SDS011;64622;46.220;19.878;2023-08-06T05:34:53;30.45;;;17.90;;
75941;SDS011;64622;46.220;19.878;2023-08-06T05:37:19;33.60;;;18.17;;
75941;SDS011;64622;46.220;19.878;2023-08-06T05:39:46;31.42;;;16.52;;
75941;SDS011;64622;46.220;19.878;2023-08-06T05:42:13;31.48;;;16.62;;
75941;SDS011;64622;46.220;19.878;2023-08-06T05:44:39;23.90;;;12.53;;
75941;SDS011;64622;46.220;19.878;2023-08-06T05:47:06;22.13;;;12.82;;
75941;SDS011;64622;46.220;19.878;2023-08-06T05:49:33;22.52;;;13.57;;
75941;SDS011;64622;46.220;19.878;2023-08-06T05:51:59;20.98;;;12.18;;
75941;SDS011;64622;46.220;19.878;2023-08-06T05:54:26;20.80;;;11.85;;
75941;SDS011;64622;46.220;19.878;2023-08-06T05:56:52;18.97;;;11.43;;
75941;SDS011;64622;46.220;19.878;2023-08-06T05:59:19;17.70;;;10.45;;
75941;SDS011;64622;46.220;19.878;2023-08-06T06:01:46;15.50;;;8.95;;
75941;SDS011;64622;46.220;19.878;2023-08-06T06:04:12;12.52;;;6.90;;
75941;SDS011;64622;46.220;19.878;2023-08-06T06:06:39;14.52;;;7.68;;
75941;SDS011;64622;46.220;19.878;2023-08-06T06:09:07;14.43;;;8.03;;
75941;SDS011;64622;46.220;19.878;2023-08-06T06:11:34;13.57;;;7.22;;
75941;SDS011;64622;46.220;19.878;2023-08-06T06:14:00;12.43;;;6.72;;
75941;SDS011;64622;46.220;19.878;2023-08-06T06:16:27;11.35;;;6.62;;
75941;SDS011;64622;46.220;19.878;2023-08-06T06:18:54;12.10;;;6.15;;
75941;SDS011;64622;46.220;19.878;2023-08-06T06:21:20;11.80;;;5.40;;
75941;SDS011;64622;46.220;19.878;2023-08-06T06:23:47;10.85;;;5.80;;
75941;SDS011;64622;46.220;19.878;2023-08-06T06:26:14;11.38;;;6.22;;
75941;SDS011;64622;46.220;19.878;2023-08-06T06:28:40;12.32;;;6.72;;
75941;SDS011;64622;46.220;19.878;2023-08-06T06:31:06;10.15;;;5.18;;
75941;SDS011;64622;46.220;19.878;2023-08-06T06:33:33;10.23;;;5.23;;
75941;SDS011;64622;46.220;19.878;2023-08-06T06:36:00;10.85;;;5.05;;
75941;SDS011;64622;46.220;19.878;2023-08-06T06:38:26;12.15;;;4.90;;
75941;SDS011;64622;46.220;19.878;2023-08-06T06:40:53;12.32;;;5.97;;
75941;SDS011;64622;46.220;19.878;2023-08-06T06:43:21;15.77;;;6.10;;
75941;SDS011;64622;46.220;19.878;2023-08-06T06:45:52;10.20;;;5.17;;
75941;SDS011;64622;46.220;19.878;2023-08-06T06:48:26;10.27;;;4.87;;
75941;SDS011;64622;46.220;19.878;2023-08-06T06:50:53;10.93;;;4.80;;
75941;SDS011;64622;46.220;19.878;2023-08-06T06:53:20;9.65;;;4.35;;
75941;SDS011;64622;46.220;19.878;2023-08-06T06:55:47;13.50;;;4.35;;
75941;SDS011;64622;46.220;19.878;2023-08-06T06:58:15;9.27;;;4.10;;
75941;SDS011;64622;46.220;19.878;2023-08-06T07:00:42;8.95;;;3.72;;
75941;SDS011;64622;46.220;19.878;2023-08-06T07:03:09;10.02;;;3.72;;
75941;SDS011;64622;46.220;19.878;2023-08-06T07:05:35;6.93;;;2.87;;
75941;SDS011;64622;46.220;19.878;2023-08-06T07:08:01;7.97;;;2.85;;
75941;SDS011;64622;46.220;19.878;2023-08-06T07:10:28;10.47;;;3.50;;
75941;SDS011;64622;46.220;19.878;2023-08-06T07:12:55;8.93;;;3.20;;
75941;SDS011;64622;46.220;19.878;2023-08-06T07:15:21;7.43;;;3.05;;
75941;SDS011;64622;46.220;19.878;2023-08-06T07:17:48;7.15;;;2.33;;
75941;SDS011;64622;46.220;19.878;2023-08-06T07:20:14;7.78;;;2.58;;
75941;SDS011;64622;46.220;19.878;2023-08-06T07:22:41;6.57;;;2.17;;
75941;SDS011;64622;46.220;19.878;2023-08-06T07:25:08;6.18;;;1.98;;
75941;SDS011;64622;46.220;19.878;2023-08-06T07:27:34;6.72;;;1.80;;
75941;SDS011;64622;46.220;19.878;2023-08-06T07:30:01;6.32;;;2.00;;
75941;SDS011;64622;46.220;19.878;2023-08-06T07:32:27;5.70;;;1.80;;
75941;SDS011;64622;46.220;19.878;2023-08-06T07:34:54;7.60;;;1.30;;
75941;SDS011;64622;46.220;19.878;2023-08-06T07:37:25;4.35;;;1.12;;
75941;SDS011;64622;46.220;19.878;2023-08-06T07:39:54;3.65;;;0.98;;
75941;SDS011;64622;46.220;19.878;2023-08-06T07:42:21;3.95;;;0.70;;
75941;SDS011;64622;46.220;19.878;2023-08-06T07:44:55;5.47;;;0.90;;
75941;SDS011;64622;46.220;19.878;2023-08-06T07:47:23;6.23;;;0.90;;
75941;SDS011;64622;46.220;19.878;2023-08-06T07:49:49;4.62;;;0.50;;
75941;SDS011;64622;46.220;19.878;2023-08-06T07:52:16;2.75;;;0.50;;
75941;SDS011;64622;46.220;19.878;2023-08-06T07:54:43;3.03;;;0.50;;
75941;SDS011;64622;46.220;19.878;2023-08-06T07:57:09;3.25;;;0.40;;
75941;SDS011;64622;46.220;19.878;2023-08-06T07:59:36;1.97;;;0.30;;
75941;SDS011;64622;46.220;19.878;2023-08-06T08:02:03;1.50;;;0.30;;
75941;SDS011;64622;46.220;19.878;2023-08-06T08:04:30;2.62;;;0.40;;
75941;SDS011;64622;46.220;19.878;2023-08-06T08:06:57;1.45;;;0.20;;
75941;SDS011;64622;46.220;19.878;2023-08-06T08:09:23;2.72;;;0.30;;
75941;SDS011;64622;46.220;19.878;2023-08-06T08:11:50;0.90;;;0.20;;
75941;SDS011;64622;46.220;19.878;2023-08-06T08:14:16;1.50;;;0.17;;
75941;SDS011;64622;46.220;19.878;2023-08-06T08:16:43;1.90;;;0.20;;
75941;SDS011;64622;46.220;19.878;2023-08-06T08:19:09;3.00;;;0.30;;
75941;SDS011;64622;46.220;19.878;2023-08-06T08:21:36;2.28;;;0.20;;
75941;SDS011;64622;46.220;19.878;2023-08-06T08:24:03;1.40;;;0.20;;
75941;SDS011;64622;46.220;19.878;2023-08-06T08:26:31;0.60;;;0.20;;
75941;SDS011;64622;46.220;19.878;2023-08-06T08:28:57;1.42;;;0.35;;
75941;SDS011;64622;46.220;19.878;2023-08-06T08:31:23;0.60;;;0.10;;
75941;SDS011;64622;46.220;19.878;2023-08-06T08:33:50;1.95;;;0.20;;
75941;SDS011;64622;46.220;19.878;2023-08-06T08:36:17;0.87;;;0.20;;
75941;SDS011;64622;46.220;19.878;2023-08-06T08:38:43;2.75;;;0.20;;
75941;SDS011;64622;46.220;19.878;2023-08-06T08:41:10;0.93;;;0.20;;
75941;SDS011;64622;46.220;19.878;2023-08-06T08:43:37;1.85;;;0.20;;
75941;SDS011;64622;46.220;19.878;2023-08-06T08:46:05;1.05;;;0.20;;
75941;SDS011;64622;46.220;19.878;2023-08-06T08:48:35;2.50;;;0.20;;
75941;SDS011;64622;46.220;19.878;2023-08-06T08:51:01;0.98;;;0.20;;
75941;SDS011;64622;46.220;19.878;2023-08-06T08:53:29;0.40;;;0.10;;
75941;SDS011;64622;46.220;19.878;2023-08-06T08:55:56;0.70;;;0.20;;
75941;SDS011;64622;46.220;19.878;2023-08-06T08:58:24;0.50;;;0.10;;
75941;SDS011;64622;46.220;19.878;2023-08-06T09:00:51;0.90;;;0.20;;
75941;SDS011;64622;46.220;19.878;2023-08-06T09:03:19;0.90;;;0.10;;
75941;SDS011;64622;46.220;19.878;2023-08-06T09:05:47;0.98;;;0.10;;
75941;SDS011;64622;46.220;19.878;2023-08-06T09:08:18;2.92;;;0.30;;
75941;SDS011;64622;46.220;19.878;2023-08-06T09:10:48;1.50;;;0.10;;
75941;SDS011;64622;46.220;19.878;2023-08-06T09:13:15;0.50;;;0.20;;
75941;SDS011;64622;46.220;19.878;2023-08-06T09:15:42;0.50;;;0.10;;
75941;SDS011;64622;46.220;19.878;2023-08-06T09:18:10;0.82;;;0.10;;
75941;SDS011;64622;46.220;19.878;2023-08-06T09:20:38;0.60;;;0.20;;
75941;SDS011;64622;46.220;19.878;2023-08-06T09:23:08;0.70;;;0.10;;
75941;SDS011;64622;46.220;19.878;2023-08-06T09:25:39;1.27;;;0.20;;
75941;SDS011;64622;46.220;19.878;2023-08-06T09:28:09;1.30;;;0.22;;
75941;SDS011;64622;46.220;19.878;2023-08-06T09:30:35;3.00;;;0.47;;
75941;SDS011;64622;46.220;19.878;2023-08-06T09:33:04;0.70;;;0.20;;
75941;SDS011;64622;46.220;19.878;2023-08-06T09:35:40;1.15;;;0.20;;
75941;SDS011;64622;46.220;19.878;2023-08-06T09:38:08;2.43;;;0.20;;
75941;SDS011;64622;46.220;19.878;2023-08-06T09:40:36;0.52;;;0.20;;
75941;SDS011;64622;46.220;19.878;2023-08-06T09:43:03;2.05;;;0.10;;
75941;SDS011;64622;46.220;19.878;2023-08-06T09:45:35;0.85;;;0.10;;
75941;SDS011;64622;46.220;19.878;2023-08-06T09:48:04;0.60;;;0.10;;
75941;SDS011;64622;46.220;19.878;2023-08-06T09:50:32;1.17;;;0.10;;
75941;SDS011;64622;46.220;19.878;2023-08-06T09:53:01;0.62;;;0.13;;
75941;SDS011;64622;46.220;19.878;2023-08-06T09:55:29;0.95;;;0.15;;
75941;SDS011;64622;46.220;19.878;2023-08-06T09:57:56;0.50;;;0.10;;
75941;SDS011;64622;46.220;19.878;2023-08-06T10:00:24;1.33;;;0.10;;
75941;SDS011;64622;46.220;19.878;2023-08-06T10:02:52;0.73;;;0.10;;
75941;SDS011;64622;46.220;19.878;2023-08-06T10:05:22;0.90;;;0.20;;
75941;SDS011;64622;46.220;19.878;2023-08-06T10:07:50;1.37;;;0.20;;
75941;SDS011;64622;46.220;19.878;2023-08-06T10:10:17;0.95;;;0.20;;
75941;SDS011;64622;46.220;19.878;2023-08-06T10:12:49;2.03;;;0.20;;
75941;SDS011;64622;46.220;19.878;2023-08-06T10:15:21;1.90;;;0.30;;
75941;SDS011;64622;46.220;19.878;2023-08-06T10:17:51;0.77;;;0.20;;
75941;SDS011;64622;46.220;19.878;2023-08-06T10:20:21;0.90;;;0.20;;
75941;SDS011;64622;46.220;19.878;2023-08-06T10:22:59;1.45;;;0.20;;
75941;SDS011;64622;46.220;19.878;2023-08-06T10:25:30;2.20;;;0.30;;
75941;SDS011;64622;46.220;19.878;2023-08-06T10:27:57;4.83;;;0.40;;
75941;SDS011;64622;46.220;19.878;2023-08-06T10:30:28;1.12;;;0.20;;
75941;SDS011;64622;46.220;19.878;2023-08-06T10:32:59;1.25;;;0.20;;
75941;SDS011;64622;46.220;19.878;2023-08-06T10:38:11;1.60;;;0.20;;
75941;SDS011;64622;46.220;19.878;2023-08-06T10:40:43;1.23;;;0.20;;
75941;SDS011;64622;46.220;19.878;2023-08-06T10:43:36;0.95;;;0.20;;
75941;SDS011;64622;46.220;19.878;2023-08-06T10:46:21;2.83;;;0.30;;
75941;SDS011;64622;46.220;19.878;2023-08-06T10:48:49;1.42;;;0.20;;
75941;SDS011;64622;46.220;19.878;2023-08-06T10:51:16;0.88;;;0.20;;
75941;SDS011;64622;46.220;19.878;2023-08-06T10:53:44;1.50;;;0.20;;
75941;SDS011;64622;46.220;19.878;2023-08-06T10:56:19;1.77;;;0.30;;
75941;SDS011;64622;46.220;19.878;2023-08-06T10:58:48;2.35;;;0.32;;
75941;SDS011;64622;46.220;19.878;2023-08-06T11:01:16;3.97;;;0.73;;
75941;SDS011;64622;46.220;19.878;2023-08-06T11:03:43;1.70;;;0.30;;
75941;SDS011;64622;46.220;19.878;2023-08-06T11:06:16;2.03;;;0.40;;
75941;SDS011;64622;46.220;19.878;2023-08-06T11:08:48;1.75;;;0.30;;
75941;SDS011;64622;46.220;19.878;2023-08-06T11:11:16;3.42;;;0.40;;
75941;SDS011;64622;46.220;19.878;2023-08-06T11:13:45;2.25;;;0.47;;
75941;SDS011;64622;46.220;19.878;2023-08-06T11:16:14;1.98;;;0.40;;
75941;SDS011;64622;46.220;19.878;2023-08-06T11:18:46;2.10;;;0.30;;
75941;SDS011;64622;46.220;19.878;2023-08-06T11:21:13;1.60;;;0.32;;
75941;SDS011;64622;46.220;19.878;2023-08-06T11:23:40;1.60;;;0.32;;
75941;SDS011;64622;46.220;19.878;2023-08-06T11:26:07;3.05;;;0.40;;
75941;SDS011;64622;46.220;19.878;2023-08-06T11:28:34;1.70;;;0.30;;
75941;SDS011;64622;46.220;19.878;2023-08-06T11:31:01;1.43;;;0.30;;
75941;SDS011;64622;46.220;19.878;2023-08-06T11:33:30;2.30;;;0.40;;
75941;SDS011;64622;46.220;19.878;2023-08-06T11:35:58;1.25;;;0.22;;
75941;SDS011;64622;46.220;19.878;2023-08-06T11:38:26;1.30;;;0.20;;
75941;SDS011;64622;46.220;19.878;2023-08-06T11:40:54;2.37;;;0.43;;
75941;SDS011;64622;46.220;19.878;2023-08-06T11:43:21;2.60;;;0.70;;
75941;SDS011;64622;46.220;19.878;2023-08-06T11:45:51;4.30;;;0.40;;
75941;SDS011;64622;46.220;19.878;2023-08-06T11:48:20;2.92;;;0.40;;
75941;SDS011;64622;46.220;19.878;2023-08-06T11:50:46;2.17;;;0.30;;
75941;SDS011;64622;46.220;19.878;2023-08-06T11:53:13;2.35;;;0.30;;
75941;SDS011;64622;46.220;19.878;2023-08-06T11:55:41;2.67;;;0.50;;
75941;SDS011;64622;46.220;19.878;2023-08-06T11:58:09;3.08;;;0.50;;
75941;SDS011;64622;46.220;19.878;2023-08-06T12:00:41;6.80;;;0.40;;
75941;SDS011;64622;46.220;19.878;2023-08-06T12:03:09;2.92;;;0.40;;
75941;SDS011;64622;46.220;19.878;2023-08-06T12:05:36;3.17;;;0.47;;
75941;SDS011;64622;46.220;19.878;2023-08-06T12:08:04;2.83;;;0.30;;
75941;SDS011;64622;46.220;19.878;2023-08-06T12:10:31;2.22;;;0.43;;
75941;SDS011;64622;46.220;19.878;2023-08-06T12:12:59;2.15;;;0.30;;
75941;SDS011;64622;46.220;19.878;2023-08-06T12:15:26;3.33;;;0.45;;
75941;SDS011;64622;46.220;19.878;2023-08-06T12:17:53;5.85;;;0.50;;
75941;SDS011;64622;46.220;19.878;2023-08-06T12:20:19;2.27;;;0.40;;
75941;SDS011;64622;46.220;19.878;2023-08-06T12:22:46;2.30;;;0.47;;
75941;SDS011;64622;46.220;19.878;2023-08-06T12:25:13;3.85;;;0.50;;
75941;SDS011;64622;46.220;19.878;2023-08-06T12:27:40;3.47;;;0.45;;
75941;SDS011;64622;46.220;19.878;2023-08-06T12:30:08;9.75;;;0.80;;
75941;SDS011;64622;46.220;19.878;2023-08-06T12:32:36;5.23;;;0.70;;
75941;SDS011;64622;46.220;19.878;2023-08-06T12:35:04;2.95;;;0.50;;
75941;SDS011;64622;46.220;19.878;2023-08-06T12:37:33;5.97;;;0.60;;
75941;SDS011;64622;46.220;19.878;2023-08-06T12:40:00;3.12;;;0.40;;
75941;SDS011;64622;46.220;19.878;2023-08-06T12:42:26;2.78;;;0.50;;
75941;SDS011;64622;46.220;19.878;2023-08-06T12:44:53;2.60;;;0.50;;
75941;SDS011;64622;46.220;19.878;2023-08-06T12:47:20;2.00;;;0.40;;
75941;SDS011;64622;46.220;19.878;2023-08-06T12:49:46;6.55;;;1.02;;
75941;SDS011;64622;46.220;19.878;2023-08-06T12:52:13;3.42;;;0.40;;
75941;SDS011;64622;46.220;19.878;2023-08-06T12:54:42;3.60;;;0.50;;
75941;SDS011;64622;46.220;19.878;2023-08-06T12:57:08;2.03;;;0.30;;
75941;SDS011;64622;46.220;19.878;2023-08-06T12:59:35;4.70;;;0.40;;
75941;SDS011;64622;46.220;19.878;2023-08-06T13:02:04;2.60;;;0.45;;
75941;SDS011;64622;46.220;19.878;2023-08-06T13:04:31;2.45;;;0.40;;
75941;SDS011;64622;46.220;19.878;2023-08-06T13:07:00;2.17;;;0.40;;
75941;SDS011;64622;46.220;19.878;2023-08-06T13:09:26;1.97;;;0.30;;
75941;SDS011;64622;46.220;19.878;2023-08-06T13:11:53;2.80;;;0.35;;
75941;SDS011;64622;46.220;19.878;2023-08-06T13:14:20;3.10;;;0.40;;
75941;SDS011;64622;46.220;19.878;2023-08-06T13:16:46;2.20;;;0.40;;
75941;SDS011;64622;46.220;19.878;2023-08-06T13:19:13;1.75;;;0.30;;
75941;SDS011;64622;46.220;19.878;2023-08-06T13:24:06;2.53;;;0.40;;
75941;SDS011;64622;46.220;19.878;2023-08-06T13:26:32;2.80;;;0.40;;
75941;SDS011;64622;46.220;19.878;2023-08-06T13:29:00;2.85;;;0.40;;
75941;SDS011;64622;46.220;19.878;2023-08-06T13:31:27;1.85;;;0.30;;
75941;SDS011;64622;46.220;19.878;2023-08-06T13:33:54;1.90;;;0.33;;
75941;SDS011;64622;46.220;19.878;2023-08-06T13:36:27;5.45;;;0.40;;
75941;SDS011;64622;46.220;19.878;2023-08-06T13:38:54;2.42;;;0.40;;
75941;SDS011;64622;46.220;19.878;2023-08-06T13:41:21;2.42;;;0.47;;
75941;SDS011;64622;46.220;19.878;2023-08-06T13:43:48;3.37;;;0.50;;
75941;SDS011;64622;46.220;19.878;2023-08-06T13:46:15;3.10;;;0.50;;
75941;SDS011;64622;46.220;19.878;2023-08-06T13:48:46;2.83;;;0.47;;
75941;SDS011;64622;46.220;19.878;2023-08-06T13:51:14;1.65;;;0.30;;
75941;SDS011;64622;46.220;19.878;2023-08-06T13:53:41;3.47;;;0.37;;
75941;SDS011;64622;46.220;19.878;2023-08-06T13:56:08;4.40;;;0.40;;
75941;SDS011;64622;46.220;19.878;2023-08-06T13:58:38;2.77;;;0.50;;
75941;SDS011;64622;46.220;19.878;2023-08-06T14:01:05;3.75;;;0.47;;
75941;SDS011;64622;46.220;19.878;2023-08-06T14:03:33;3.67;;;0.50;;
75941;SDS011;64622;46.220;19.878;2023-08-06T14:05:59;3.65;;;0.57;;
75941;SDS011;64622;46.220;19.878;2023-08-06T14:08:26;3.78;;;0.57;;
75941;SDS011;64622;46.220;19.878;2023-08-06T14:10:52;4.87;;;0.70;;
75941;SDS011;64622;46.220;19.878;2023-08-06T14:13:21;2.37;;;0.40;;
75941;SDS011;64622;46.220;19.878;2023-08-06T14:15:47;3.37;;;0.60;;
75941;SDS011;64622;46.220;19.878;2023-08-06T14:18:15;2.80;;;0.47;;
75941;SDS011;64622;46.220;19.878;2023-08-06T14:20:42;2.65;;;0.52;;
75941;SDS011;64622;46.220;19.878;2023-08-06T14:23:09;3.53;;;0.50;;
75941;SDS011;64622;46.220;19.878;2023-08-06T14:25:37;2.30;;;0.50;;
75941;SDS011;64622;46.220;19.878;2023-08-06T14:28:04;2.78;;;0.50;;
75941;SDS011;64622;46.220;19.878;2023-08-06T14:30:32;2.60;;;0.57;;
75941;SDS011;64622;46.220;19.878;2023-08-06T14:32:59;3.72;;;0.65;;
75941;SDS011;64622;46.220;19.878;2023-08-06T14:35:29;3.97;;;0.70;;
75941;SDS011;64622;46.220;19.878;2023-08-06T14:37:55;2.20;;;0.40;;
75941;SDS011;64622;46.220;19.878;2023-08-06T14:40:22;2.97;;;0.52;;
75941;SDS011;64622;46.220;19.878;2023-08-06T14:42:49;4.20;;;0.50;;
75941;SDS011;64622;46.220;19.878;2023-08-06T14:45:15;2.72;;;0.60;;